Time;durP1;ratioP1;P1;durP2;ratioP2;P2;SDS_P1;SDS_P2;PMS_P1;PMS_P2;Temp;Humidity;BMP_temperature;BMP_pressure;BME280_temperature;BME280_humidity;BME280_pressure;Samples;Min_cycle;Max_cycle;Signal;HPM_P1;HPM_P2
2023/03/30 00:00:17;;;;;;;;;;;;;;;15.00;48.25;101558.00;4998608;28;1115;-53
2023/03/30 00:02:49;;;;;;;;;;;;;;;15.16;47.61;101559.94;4997564;28;1911;-52
2023/03/30 00:05:17;;;;;;;;;;;;;;;15.72;46.21;101562.91;4999512;28;1092;-50
2023/03/30 00:07:46;;;;;;;;;;;;;;;15.10;47.76;101560.13;4999001;28;1060;-52
2023/03/30 00:10:13;;;;;;;;;;;;;;;15.24;47.47;101561.47;4999213;28;1040;-54
2023/03/30 00:12:39;;;;;;;;;;;;;;;14.78;48.72;101560.56;4997980;28;1064;-54
2023/03/30 00:15:06;;;;;;;;;;;;;;;15.14;47.80;101564.03;4999015;28;1160;-54
2023/03/30 00:17:32;;;;;;;;;;;;;;;15.69;46.47;101557.88;4998865;28;1097;-54
2023/03/30 00:20:00;;;;;;;;;;;;;;;15.21;47.18;101556.50;4998957;28;1009;-55
2023/03/30 00:22:26;;;;;;;;;;;;;;;15.26;47.35;101551.09;4998583;28;1971;-52
2023/03/30 00:24:52;;;;;;;;;;;;;;;15.07;47.74;101561.44;4998121;28;1079;-54
2023/03/30 00:27:17;;;;;;;;;;;;;;;14.86;48.75;101554.72;4997702;28;1048;-53
2023/03/30 00:29:43;;;;;;;;;;;;;;;15.72;46.20;101562.91;4997471;28;1352;-54
2023/03/30 00:32:09;;;;;;;;;;;;;;;15.92;45.84;101556.09;4998717;28;1125;-52
2023/03/30 00:34:35;;;;;;;;;;;;;;;15.13;47.58;101562.38;4998159;28;1129;-54
2023/03/30 00:37:02;;;;;;;;;;;;;;;15.35;47.30;101559.78;4998207;28;1194;-53
2023/03/30 00:39:28;;;;;;;;;;;;;;;14.69;48.54;101552.75;4998610;28;1120;-54
2023/03/30 00:41:54;;;;;;;;;;;;;;;15.39;47.05;101549.97;4996240;28;1910;-53
2023/03/30 00:44:38;;;;;;;;;;;;;;;15.73;45.98;101548.09;4998287;28;1153;-54
2023/03/30 00:47:04;;;;;;;;;;;;;;;15.14;47.62;101547.59;4998969;28;1061;-55
2023/03/30 00:49:30;;;;;;;;;;;;;;;15.23;47.44;101544.22;4997998;28;867;-54
2023/03/30 00:51:56;;;;;;;;;;;;;;;14.88;48.44;101542.44;4998188;28;1033;-55
2023/03/30 00:54:22;;;;;;;;;;;;;;;15.54;46.50;101543.91;4996718;28;1065;-55
2023/03/30 00:56:47;;;;;;;;;;;;;;;15.96;45.65;101551.75;4998217;28;1076;-55
2023/03/30 00:59:13;;;;;;;;;;;;;;;15.33;46.85;101543.56;4998323;28;1057;-54
2023/03/30 01:01:39;;;;;;;;;;;;;;;15.29;47.08;101542.41;4996548;28;1977;-55
2023/03/30 01:04:05;;;;;;;;;;;;;;;14.91;48.09;101543.03;4997528;28;989;-52
2023/03/30 01:06:32;;;;;;;;;;;;;;;15.20;47.68;101541.94;5029039;28;1153;-55
2023/03/30 01:08:58;;;;;;;;;;;;;;;15.73;46.15;101548.09;5029337;28;1203;-55
2023/03/30 01:11:25;;;;;;;;;;;;;;;15.85;45.79;101548.03;4996984;28;1148;-56
2023/03/30 01:13:53;;;;;;;;;;;;;;;15.12;47.72;101536.03;4997681;28;947;-55
2023/03/30 01:16:31;;;;;;;;;;;;;;;15.08;47.77;101543.91;5023710;28;1033;-55
2023/03/30 01:19:15;;;;;;;;;;;;;;;15.00;48.14;101545.13;4991445;28;1009;-54
2023/03/30 01:22:00;;;;;;;;;;;;;;;15.55;46.72;101548.31;4987149;28;1906;-56
2023/03/30 01:24:26;;;;;;;;;;;;;;;15.80;45.86;101544.41;4997170;28;1149;-55
2023/03/30 01:26:53;;;;;;;;;;;;;;;14.93;48.13;101544.47;4997361;28;1037;-53
2023/03/30 01:29:24;;;;;;;;;;;;;;;15.16;47.70;101546.25;5028925;28;1024;-55
2023/03/30 01:32:09;;;;;;;;;;;;;;;15.74;46.04;101552.50;4997519;28;1164;-54
2023/03/30 01:34:50;;;;;;;;;;;;;;;15.37;46.65;101544.72;4986556;28;1048;-54
2023/03/30 01:37:27;;;;;;;;;;;;;;;15.09;47.54;101552.97;4997135;28;1136;-55
2023/03/30 01:39:54;;;;;;;;;;;;;;;14.37;49.37;101544.91;5012352;28;1155;-53
2023/03/30 01:42:41;;;;;;;;;;;;;;;15.18;47.48;101552.34;4997296;28;1989;-55
2023/03/30 01:45:07;;;;;;;;;;;;;;;15.68;46.37;101559.00;5028613;28;1190;-55
2023/03/30 01:47:37;;;;;;;;;;;;;;;15.83;45.54;101554.84;4997182;28;1131;-54
2023/03/30 01:50:07;;;;;;;;;;;;;;;15.07;47.80;101555.97;5028641;28;1136;-54
2023/03/30 01:52:42;;;;;;;;;;;;;;;15.03;47.87;101558.34;5018955;28;1130;-54
2023/03/30 01:55:09;;;;;;;;;;;;;;;15.13;47.44;101559.63;4977689;28;1183;-54
2023/03/30 01:57:45;;;;;;;;;;;;;;;15.62;46.35;101554.47;4988093;28;1061;-55
2023/03/30 02:00:12;;;;;;;;;;;;;;;15.83;45.83;101552.13;4995812;28;1249;-50
2023/03/30 02:02:38;;;;;;;;;;;;;;;15.11;47.40;101559.03;4995498;28;1890;-53
2023/03/30 02:05:05;;;;;;;;;;;;;;;15.20;47.23;101554.81;5028715;28;1108;-52
2023/03/30 02:07:30;;;;;;;;;;;;;;;14.20;49.94;101541.25;4996799;28;1099;-51
2023/03/30 02:09:57;;;;;;;;;;;;;;;15.09;47.73;101551.06;5015222;28;1168;-50
2023/03/30 02:12:22;;;;;;;;;;;;;;;15.52;46.61;101560.63;5011490;28;1127;-53
2023/03/30 02:14:48;;;;;;;;;;;;;;;15.28;46.92;101565.41;4994196;28;866;-49
2023/03/30 02:17:17;;;;;;;;;;;;;;;15.30;46.93;101571.44;4995293;28;1136;-54
2023/03/30 02:19:45;;;;;;;;;;;;;;;15.26;46.92;101562.06;5015864;28;1137;-53
2023/03/30 02:22:11;;;;;;;;;;;;;;;14.49;49.13;101561.31;5027966;28;1902;-52
2023/03/30 02:24:37;;;;;;;;;;;;;;;15.60;46.41;101570.34;5011825;28;1076;-54
2023/03/30 02:27:02;;;;;;;;;;;;;;;15.88;45.57;101566.75;5000572;28;894;-54
2023/03/30 02:29:28;;;;;;;;;;;;;;;15.05;47.39;101572.63;5000669;28;1041;-53
2023/03/30 02:31:55;;;;;;;;;;;;;;;15.27;46.85;101571.94;5000850;28;1021;-54
2023/03/30 02:34:35;;;;;;;;;;;;;;;14.85;48.07;101570.31;4999334;28;1620;-52
2023/03/30 02:37:08;;;;;;;;;;;;;;;15.65;46.40;101575.91;5014947;28;1175;-53
2023/03/30 02:39:43;;;;;;;;;;;;;;;15.88;45.42;101574.16;5005553;28;1208;-54
2023/03/30 02:42:28;;;;;;;;;;;;;;;15.17;47.44;101572.59;4998755;28;1975;-52
2023/03/30 02:45:20;;;;;;;;;;;;;;;15.02;47.57;101569.53;5000466;28;1187;-54
2023/03/30 02:47:46;;;;;;;;;;;;;;;15.15;47.50;101579.38;4998806;28;1354;-52
2023/03/30 02:50:22;;;;;;;;;;;;;;;15.70;46.13;101576.00;4998950;28;1158;-53
2023/03/30 02:52:51;;;;;;;;;;;;;;;15.06;47.48;101568.81;5032286;28;1292;-54
2023/03/30 02:55:24;;;;;;;;;;;;;;;15.15;47.43;101577.50;4998844;28;1521;-50
2023/03/30 02:58:20;;;;;;;;;;;;;;;14.48;49.29;101570.59;4997619;28;1186;-53
2023/03/30 03:01:13;;;;;;;;;;;;;;;15.51;46.63;101569.09;4998879;28;1234;-55
2023/03/30 03:03:46;;;;;;;;;;;;;;;15.36;46.64;101573.22;5021087;28;1964;-54
2023/03/30 03:06:13;;;;;;;;;;;;;;;15.12;47.59;101574.38;5000035;28;1220;-54
2023/03/30 03:08:46;;;;;;;;;;;;;;;15.72;45.81;101584.84;5014215;28;1363;-52
2023/03/30 03:11:17;;;;;;;;;;;;;;;15.57;46.22;101577.16;4998451;28;1260;-53
2023/03/30 03:13:42;;;;;;;;;;;;;;;15.14;47.36;101583.22;4998404;28;2120;-54
2023/03/30 03:16:11;;;;;;;;;;;;;;;14.81;48.06;101587.47;5000039;28;1064;-54
2023/03/30 03:18:40;;;;;;;;;;;;;;;14.88;48.14;101582.69;4979767;28;1170;-49
2023/03/30 03:21:06;;;;;;;;;;;;;;;15.52;46.25;101587.19;4997791;28;1085;-54
2023/03/30 03:23:32;;;;;;;;;;;;;;;15.74;45.68;101588.16;5000005;28;1902;-48
2023/03/30 03:25:59;;;;;;;;;;;;;;;15.01;47.51;101598.84;4997986;28;1194;-51
2023/03/30 03:28:25;;;;;;;;;;;;;;;15.47;46.42;101593.41;4998549;28;1300;-51
2023/03/30 03:30:57;;;;;;;;;;;;;;;14.98;47.67;101593.84;4998489;28;1121;-51
2023/03/30 03:33:23;;;;;;;;;;;;;;;15.16;47.55;101602.97;4998185;28;1445;-51
2023/03/30 03:36:05;;;;;;;;;;;;;;;15.69;45.94;101600.94;4997913;28;1191;-54
2023/03/30 03:38:33;;;;;;;;;;;;;;;15.85;45.41;101610.28;4996919;28;1172;-56
2023/03/30 03:40:59;;;;;;;;;;;;;;;15.60;45.96;101603.25;4998429;28;1146;-54
2023/03/30 03:43:26;;;;;;;;;;;;;;;15.32;46.89;101613.16;4998489;28;1902;-53
2023/03/30 03:45:52;;;;;;;;;;;;;;;15.10;47.33;101603.94;4998323;28;1256;-55
2023/03/30 03:48:18;;;;;;;;;;;;;;;14.53;48.99;101602.72;5014520;28;1110;-51
2023/03/30 03:50:53;;;;;;;;;;;;;;;15.64;45.77;101604.44;4998076;28;1383;-49
2023/03/30 03:53:20;;;;;;;;;;;;;;;15.40;46.48;101599.06;5026785;28;1781;-49
2023/03/30 03:55:47;;;;;;;;;;;;;;;15.16;47.01;101611.19;4996578;28;1289;-48
2023/03/30 03:58:12;;;;;;;;;;;;;;;14.98;47.26;101604.78;4998241;28;1357;-50
2023/03/30 04:00:38;;;;;;;;;;;;;;;14.60;48.63;101603.41;4996615;28;1234;-53
2023/03/30 04:03:04;;;;;;;;;;;;;;;15.48;46.20;101603.28;4996629;28;1906;-53
2023/03/30 04:05:30;;;;;;;;;;;;;;;15.70;45.59;101606.16;4997927;28;1119;-55
2023/03/30 04:07:55;;;;;;;;;;;;;;;15.82;45.44;101610.78;4997726;28;1080;-50
2023/03/30 04:10:22;;;;;;;;;;;;;;;15.05;47.40;101608.25;4997126;28;1337;-48
2023/03/30 04:13:10;;;;;;;;;;;;;;;15.06;47.08;101612.63;4979912;28;1100;-44
2023/03/30 04:15:45;;;;;;;;;;;;;;;15.09;47.19;101615.97;4997744;28;961;-46
2023/03/30 04:18:40;;;;;;;;;;;;;;;15.69;45.83;101618.22;4997864;28;1238;-50
2023/03/30 04:21:25;;;;;;;;;;;;;;;15.01;47.16;101618.03;4998439;28;954;-49
2023/03/30 04:23:51;;;;;;;;;;;;;;;14.99;47.19;101614.69;4996583;28;1922;-46
2023/03/30 04:26:16;;;;;;;;;;;;;;;14.24;49.36;101613.53;4998561;28;960;-47
2023/03/30 04:28:55;;;;;;;;;;;;;;;15.35;46.61;101615.41;4996534;28;1392;-49
2023/03/30 04:31:45;;;;;;;;;;;;;;;15.69;45.41;101618.22;4993605;28;1018;-48
2023/03/30 04:34:30;;;;;;;;;;;;;;;15.90;44.99;101626.81;4994925;28;1237;-46
2023/03/30 04:36:56;;;;;;;;;;;;;;;15.14;47.02;101627.03;4998922;28;1009;-47
2023/03/30 04:39:56;;;;;;;;;;;;;;;15.36;46.27;101624.44;5005793;28;1264;-51
2023/03/30 04:42:29;;;;;;;;;;;;;;;14.50;48.49;101630.56;4998505;28;1978;-49
2023/03/30 04:45:13;;;;;;;;;;;;;;;15.54;45.81;101632.47;4998394;28;1176;-51
2023/03/30 04:48:01;;;;;;;;;;;;;;;15.95;44.65;101632.41;4992300;28;1255;-50
2023/03/30 04:50:59;;;;;;;;;;;;;;;15.16;46.58;101635.84;4975508;28;1321;-47
2023/03/30 04:54:01;;;;;;;;;;;;;;;15.18;46.63;101644.63;4987321;28;1010;-44
2023/03/30 04:56:38;;;;;;;;;;;;;;;14.05;49.26;101631.97;4998096;28;989;-46
2023/03/30 04:59:23;;;;;;;;;;;;;;;15.51;45.84;101641.19;4996911;28;1587;-50
2023/03/30 05:02:03;;;;;;;;;;;;;;;16.02;44.35;101645.94;4997682;28;1960;-49
2023/03/30 05:04:52;;;;;;;;;;;;;;;15.12;46.50;101642.88;4997320;28;1204;-50
2023/03/30 05:07:36;;;;;;;;;;;;;;;15.33;46.22;101642.22;4993315;28;1168;-46
2023/03/30 05:10:02;;;;;;;;;;;;;;;14.52;47.94;101642.09;4994065;28;1290;-50
2023/03/30 05:12:33;;;;;;;;;;;;;;;15.07;47.15;101643.63;4997638;28;1021;-50
2023/03/30 05:15:19;;;;;;;;;;;;;;;15.59;45.23;101639.97;4983720;28;1177;-51
2023/03/30 05:17:44;;;;;;;;;;;;;;;15.05;46.61;101643.00;4997966;28;1200;-48
2023/03/30 05:20:33;;;;;;;;;;;;;;;14.98;46.72;101640.41;4997460;28;1170;-53
2023/03/30 05:23:17;;;;;;;;;;;;;;;14.08;49.25;101645.16;4997623;28;1972;-56
2023/03/30 05:26:18;;;;;;;;;;;;;;;15.48;45.64;101643.59;4995994;28;1487;-54
2023/03/30 05:29:10;;;;;;;;;;;;;;;15.78;44.97;101637.84;4995130;28;1333;-44
2023/03/30 05:31:55;;;;;;;;;;;;;;;15.59;45.34;101642.72;4995279;28;1182;-49
2023/03/30 05:34:40;;;;;;;;;;;;;;;15.57;45.44;101642.97;4994486;28;1341;-52
2023/03/30 05:37:20;;;;;;;;;;;;;;;14.11;48.90;101641.13;4997701;28;1048;-55
2023/03/30 05:40:14;;;;;;;;;;;;;;;14.96;47.05;101639.81;4996019;28;1273;-53
2023/03/30 05:43:00;;;;;;;;;;;;;;;17.13;41.93;101643.47;4992221;28;1906;-55
2023/03/30 05:45:42;;;;;;;;;;;;;;;18.27;39.18;101652.63;4995796;28;1455;-53
2023/03/30 05:48:27;;;;;;;;;;;;;;;19.17;37.42;101655.63;4997216;28;997;-55
2023/03/30 05:51:22;;;;;;;;;;;;;;;18.37;39.04;101660.13;4995486;28;1433;-56
2023/03/30 05:54:11;;;;;;;;;;;;;;;18.50;38.54;101658.00;4990239;28;1300;-51
2023/03/30 05:56:37;;;;;;;;;;;;;;;16.66;42.52;101648.34;4997150;28;1017;-48
2023/03/30 05:59:21;;;;;;;;;;;;;;;14.51;48.30;101649.47;4983676;28;891;-50
2023/03/30 06:02:11;;;;;;;;;;;;;;;15.40;46.42;101651.13;4995984;28;1973;-46
2023/03/30 06:04:38;;;;;;;;;;;;;;;16.33;43.71;101652.78;4995128;28;1333;-49
2023/03/30 06:07:04;;;;;;;;;;;;;;;16.23;43.68;101658.13;4975145;28;2089;-45
2023/03/30 06:09:29;;;;;;;;;;;;;;;15.88;44.90;101664.66;4987182;28;1233;-50
2023/03/30 06:11:59;;;;;;;;;;;;;;;15.22;46.39;101676.81;4995631;28;1230;-53
2023/03/30 06:14:24;;;;;;;;;;;;;;;14.85;47.18;101670.78;4995693;28;1206;-50
2023/03/30 06:17:22;;;;;;;;;;;;;;;15.88;44.69;101681.13;4989469;28;1201;-51
2023/03/30 06:19:48;;;;;;;;;;;;;;;16.75;42.91;101674.25;4993622;28;1236;-58
2023/03/30 06:22:14;;;;;;;;;;;;;;;17.30;41.57;101671.72;4998833;28;1973;-56
2023/03/30 06:24:56;;;;;;;;;;;;;;;17.57;40.80;101680.00;4995444;28;1362;-49
2023/03/30 06:27:22;;;;;;;;;;;;;;;17.87;40.50;101672.31;4993342;28;1351;-58
2023/03/30 06:29:48;;;;;;;;;;;;;;;18.20;39.81;101667.69;5013139;28;1443;-54
2023/03/30 06:32:14;;;;;;;;;;;;;;;18.39;39.35;101677.19;4992885;28;1167;-48
2023/03/30 06:34:52;;;;;;;;;;;;;;;18.56;39.00;101678.97;4988304;28;1252;-52
2023/03/30 06:37:19;;;;;;;;;;;;;;;18.73;38.83;101678.81;4995185;28;1200;-55
2023/03/30 06:39:45;;;;;;;;;;;;;;;18.93;38.59;101669.88;4988429;28;1302;-53
2023/03/30 06:42:11;;;;;;;;;;;;;;;19.10;38.28;101678.75;4991446;28;1898;-49
2023/03/30 06:44:59;;;;;;;;;;;;;;;19.26;37.91;101673.31;4994897;28;1273;-48
2023/03/30 06:47:24;;;;;;;;;;;;;;;19.36;37.88;101669.75;5018185;28;1526;-50
2023/03/30 06:49:50;;;;;;;;;;;;;;;19.52;37.39;101671.47;4996752;28;1299;-50
2023/03/30 06:52:53;;;;;;;;;;;;;;;19.64;37.39;101677.56;4995417;28;1364;-50
2023/03/30 06:55:21;;;;;;;;;;;;;;;19.78;37.31;101677.88;4995214;28;1643;-49
2023/03/30 06:57:46;;;;;;;;;;;;;;;19.88;37.15;101676.25;4996781;28;1212;-47
2023/03/30 07:00:14;;;;;;;;;;;;;;;20.01;36.99;101686.75;4996344;28;1837;-50
2023/03/30 07:02:42;;;;;;;;;;;;;;;20.11;36.70;101675.72;4996183;28;1915;-50
2023/03/30 07:05:08;;;;;;;;;;;;;;;20.22;36.47;101676.56;4993694;28;1518;-50
2023/03/30 07:07:54;;;;;;;;;;;;;;;20.33;36.20;101664.38;4994333;28;1320;-53
2023/03/30 07:10:20;;;;;;;;;;;;;;;20.40;36.01;101669.63;4995404;28;1135;-54
2023/03/30 07:12:47;;;;;;;;;;;;;;;20.50;36.01;101672.38;4981040;28;1643;-52
2023/03/30 07:15:13;;;;;;;;;;;;;;;20.63;35.81;101665.44;5014963;28;1385;-52
2023/03/30 07:17:39;;;;;;;;;;;;;;;20.73;35.82;101672.91;4998616;28;1309;-48
2023/03/30 07:20:07;;;;;;;;;;;;;;;20.82;35.86;101660.19;4998644;28;1266;-47
2023/03/30 07:22:51;;;;;;;;;;;;;;;20.85;35.88;101669.84;4998227;28;1973;-46
2023/03/30 07:25:17;;;;;;;;;;;;;;;20.96;35.61;101667.91;4998368;28;1329;-57
2023/03/30 07:27:43;;;;;;;;;;;;;;;21.08;35.64;101662.84;4998294;28;1124;-46
2023/03/30 07:30:09;;;;;;;;;;;;;;;21.17;35.44;101668.63;4998259;28;1315;-47
2023/03/30 07:32:35;;;;;;;;;;;;;;;21.25;35.39;101665.28;4998050;28;1410;-47
2023/03/30 07:35:01;;;;;;;;;;;;;;;21.30;35.37;101662.47;4997119;28;1246;-52
2023/03/30 07:37:30;;;;;;;;;;;;;;;21.32;35.06;101667.72;4998561;28;1241;-50
2023/03/30 07:39:56;;;;;;;;;;;;;;;21.35;35.10;101664.41;4994242;28;1223;-49
2023/03/30 07:42:22;;;;;;;;;;;;;;;21.40;35.07;101653.28;4988404;28;1981;-51
2023/03/30 07:44:48;;;;;;;;;;;;;;;21.46;34.74;101660.47;5007475;28;1172;-49
2023/03/30 07:47:16;;;;;;;;;;;;;;;21.54;34.72;101653.53;4997774;28;1913;-49
2023/03/30 07:49:42;;;;;;;;;;;;;;;21.51;34.87;101649.34;4995849;28;1330;-53
2023/03/30 07:52:08;;;;;;;;;;;;;;;21.76;34.23;101664.19;4993872;28;1356;-54
2023/03/30 07:54:45;;;;;;;;;;;;;;;22.16;33.45;101656.69;4985381;28;1171;-48
2023/03/30 07:57:21;;;;;;;;;;;;;;;21.67;34.60;101652.06;4997298;28;1319;-52
2023/03/30 07:59:47;;;;;;;;;;;;;;;20.26;37.14;101651.94;4997928;28;1136;-50
2023/03/30 08:02:43;;;;;;;;;;;;;;;18.85;40.26;101653.81;4998282;28;1906;-51
2023/03/30 08:05:14;;;;;;;;;;;;;;;18.92;40.26;101646.97;4997734;28;1167;-47
2023/03/30 08:08:09;;;;;;;;;;;;;;;18.76;41.11;101646.03;4997555;28;1274;-43
2023/03/30 08:10:37;;;;;;;;;;;;;;;18.75;40.79;101654.59;4997575;28;1370;-45
2023/03/30 08:13:02;;;;;;;;;;;;;;;19.09;40.57;101649.53;4997369;28;1242;-46
2023/03/30 08:15:28;;;;;;;;;;;;;;;20.99;36.38;101651.56;4997348;28;1061;-43
2023/03/30 08:17:54;;;;;;;;;;;;;;;21.47;35.36;101650.22;4998613;28;955;-44
2023/03/30 08:20:19;;;;;;;;;;;;;;;22.34;33.97;101634.94;4998823;28;1068;-46
2023/03/30 08:22:45;;;;;;;;;;;;;;;21.49;35.16;101648.81;4998053;28;1902;-48
2023/03/30 08:25:10;;;;;;;;;;;;;;;20.06;38.56;101645.34;4997533;28;1132;-49
2023/03/30 08:27:36;;;;;;;;;;;;;;;21.24;36.10;101660.00;4998331;28;1064;-45
2023/03/30 08:30:02;;;;;;;;;;;;;;;21.51;35.72;101649.34;4998174;28;1044;-45
2023/03/30 08:32:27;;;;;;;;;;;;;;;21.44;35.84;101651.59;4995129;28;1301;-43
2023/03/30 08:34:53;;;;;;;;;;;;;;;21.29;36.40;101638.69;4995641;28;1002;-45
2023/03/30 08:37:19;;;;;;;;;;;;;;;21.01;36.74;101643.81;4998677;28;1041;-48
2023/03/30 08:39:44;;;;;;;;;;;;;;;20.51;37.83;101640.06;4998122;28;1032;-48
2023/03/30 08:42:49;;;;;;;;;;;;;;;19.88;39.01;101640.38;4997960;28;1956;-47
2023/03/30 08:45:15;;;;;;;;;;;;;;;19.15;39.92;101640.19;4928310;29;1364;-48
2023/03/30 08:47:41;;;;;;;;;;;;;;;18.84;40.33;101632.84;4938345;29;1066;-48
2023/03/30 08:50:10;;;;;;;;;;;;;;;19.73;39.66;101622.66;4943942;28;1166;-47
2023/03/30 08:52:36;;;;;;;;;;;;;;;21.10;36.77;101630.22;5005850;28;1068;-48
2023/03/30 08:55:03;;;;;;;;;;;;;;;21.50;35.92;101627.50;4978360;28;1141;-50
2023/03/30 08:57:37;;;;;;;;;;;;;;;21.70;35.25;101634.88;4975418;28;1106;-45
2023/03/30 09:00:10;;;;;;;;;;;;;;;21.75;35.17;101622.94;4976942;28;1105;-46
2023/03/30 09:02:41;;;;;;;;;;;;;;;21.83;34.83;101603.78;4973739;28;1887;-45
2023/03/30 09:05:13;;;;;;;;;;;;;;;21.88;34.53;101600.13;4969748;28;1062;-46
2023/03/30 09:07:41;;;;;;;;;;;;;;;22.03;34.22;101600.03;4972274;28;894;-47
2023/03/30 09:10:10;;;;;;;;;;;;;;;22.47;33.14;101612.06;4978934;28;1021;-45
2023/03/30 09:12:37;;;;;;;;;;;;;;;21.75;34.18;101609.91;4977050;28;1188;-43
2023/03/30 09:15:03;;;;;;;;;;;;;;;22.49;32.98;101604.28;4975452;28;1328;-46
2023/03/30 09:17:36;;;;;;;;;;;;;;;21.07;35.27;101597.63;4970919;28;1165;-43
2023/03/30 09:20:15;;;;;;;;;;;;;;;20.41;37.09;101609.69;4971625;28;1216;-43
2023/03/30 09:22:41;;;;;;;;;;;;;;;20.65;36.50;101601.59;4976785;28;1902;-47
2023/03/30 09:25:14;;;;;;;;;;;;;;;20.47;36.83;101600.28;4978439;28;1080;-48
2023/03/30 09:28:00;;;;;;;;;;;;;;;20.13;37.43;101590.69;4977500;28;1132;-46
2023/03/30 09:30:38;;;;;;;;;;;;;;;19.43;38.79;101587.59;4968012;28;1266;-45
2023/03/30 09:33:24;;;;;;;;;;;;;;;19.11;39.48;101586.69;4977928;28;1220;-44
2023/03/30 09:35:54;;;;;;;;;;;;;;;20.12;37.54;101577.97;4958896;28;1300;-45
2023/03/30 09:38:22;;;;;;;;;;;;;;;20.02;37.65;101578.00;4964861;28;1363;-44
2023/03/30 09:40:57;;;;;;;;;;;;;;;19.44;38.81;101578.22;4977697;28;1113;-45
2023/03/30 09:43:36;;;;;;;;;;;;;;;19.85;38.12;101592.06;4975395;28;1907;-47
2023/03/30 09:46:05;;;;;;;;;;;;;;;20.49;36.58;101587.81;4979855;28;1228;-47
2023/03/30 09:48:36;;;;;;;;;;;;;;;20.46;36.52;101580.09;4992720;28;1215;-53
2023/03/30 09:51:02;;;;;;;;;;;;;;;;;;5025466;28;1367;-48
2023/03/30 09:53:28;;;;;;;;;;;;;;;21.62;34.26;101569.06;4996636;28;919;-52
2023/03/30 09:55:54;;;;;;;;;;;;;;;21.93;33.63;101577.13;4996415;28;1089;-50
2023/03/30 09:58:25;;;;;;;;;;;;;;;22.10;33.25;101576.69;4996907;28;1045;-45
2023/03/30 10:01:11;;;;;;;;;;;;;;;22.26;33.06;101580.97;4996827;28;1180;-50
2023/03/30 10:03:37;;;;;;;;;;;;;;;22.40;32.89;101564.50;4991131;28;1977;-57
2023/03/30 10:06:06;;;;;;;;;;;;;;;22.58;32.71;101574.00;4996500;28;950;-52
2023/03/30 10:08:32;;;;;;;;;;;;;;;22.63;32.52;101557.28;4995826;28;1243;-49
2023/03/30 10:10:57;;;;;;;;;;;;;;;22.36;33.13;101560.66;4996479;28;1154;-54
2023/03/30 10:13:26;;;;;;;;;;;;;;;22.09;33.88;101562.03;4993296;28;1123;-49
2023/03/30 10:15:51;;;;;;;;;;;;;;;21.82;34.42;101552.28;4993599;28;1263;-50
2023/03/30 10:18:22;;;;;;;;;;;;;;;20.66;36.94;101557.13;4994233;28;1218;-49
2023/03/30 10:21:01;;;;;;;;;;;;;;;21.83;34.97;101556.72;5017629;28;1481;-49
2023/03/30 10:23:41;;;;;;;;;;;;;;;22.15;34.31;101552.53;4994242;28;1902;-47
2023/03/30 10:26:17;;;;;;;;;;;;;;;22.44;33.98;101550.84;4995611;28;1188;-48
2023/03/30 10:28:56;;;;;;;;;;;;;;;22.65;33.52;101552.28;4995335;28;1341;-48
2023/03/30 10:31:22;;;;;;;;;;;;;;;22.79;33.55;101552.38;4995310;28;1267;-49
2023/03/30 10:33:48;;;;;;;;;;;;;;;22.85;33.41;101547.59;4995422;28;1148;-49
2023/03/30 10:36:14;;;;;;;;;;;;;;;21.92;35.10;101536.69;4996650;28;1123;-48
2023/03/30 10:38:40;;;;;;;;;;;;;;;22.32;34.61;101531.84;4995128;28;1367;-47
2023/03/30 10:41:10;;;;;;;;;;;;;;;21.24;36.42;101539.16;4994808;28;1114;-50
2023/03/30 10:43:37;;;;;;;;;;;;;;;21.38;36.64;101531.03;4994680;28;1972;-49
2023/03/30 10:46:15;;;;;;;;;;;;;;;22.01;35.39;101537.72;4996372;28;1225;-54
2023/03/30 10:48:53;;;;;;;;;;;;;;;22.29;34.79;101527.72;5000429;28;1084;-50
2023/03/30 10:51:26;;;;;;;;;;;;;;;22.68;33.89;101528.69;4999876;28;1105;-49
2023/03/30 10:53:55;;;;;;;;;;;;;;;22.51;34.23;101530.00;4998836;28;1201;-53
2023/03/30 10:56:38;;;;;;;;;;;;;;;23.13;32.97;101529.19;4998786;28;1236;-51
2023/03/30 10:59:22;;;;;;;;;;;;;;;21.50;35.85;101534.28;4998116;28;1510;-56
2023/03/30 11:01:54;;;;;;;;;;;;;;;20.01;38.51;101534.94;4995033;28;1074;-45
2023/03/30 11:04:25;;;;;;;;;;;;;;;19.81;38.58;101522.81;4999582;28;1981;-47
2023/03/30 11:06:52;;;;;;;;;;;;;;;19.67;39.16;101522.50;4997871;28;1005;-53
2023/03/30 11:09:19;;;;;;;;;;;;;;;19.73;39.56;101515.06;4997648;28;1042;-47
2023/03/30 11:11:48;;;;;;;;;;;;;;;20.04;39.18;101511.47;4999952;28;1431;-54
2023/03/30 11:14:29;;;;;;;;;;;;;;;20.48;38.14;101499.72;4999704;28;1267;-51
2023/03/30 11:16:57;;;;;;;;;;;;;;;20.95;37.24;101506.69;5028276;28;1278;-53
2023/03/30 11:19:28;;;;;;;;;;;;;;;20.81;37.57;101511.22;4998488;28;1241;-55
2023/03/30 11:21:55;;;;;;;;;;;;;;;20.07;38.80;101497.91;4998497;28;1399;-55
2023/03/30 11:24:22;;;;;;;;;;;;;;;19.83;39.39;101492.97;4999473;28;1981;-55
2023/03/30 11:27:02;;;;;;;;;;;;;;;19.95;39.36;101491.84;4999817;28;1120;-52
2023/03/30 11:29:37;;;;;;;;;;;;;;;20.04;39.44;101487.44;4999666;28;1117;-53
2023/03/30 11:32:22;;;;;;;;;;;;;;;20.72;38.26;101488.03;4999481;28;1048;-53
2023/03/30 11:35:07;;;;;;;;;;;;;;;21.10;37.43;101480.91;4988027;28;1158;-55
2023/03/30 11:37:41;;;;;;;;;;;;;;;21.24;37.20;101486.59;4999509;28;1115;-55
2023/03/30 11:40:17;;;;;;;;;;;;;;;21.22;37.57;101472.22;4999627;28;1124;-55
2023/03/30 11:42:43;;;;;;;;;;;;;;;20.98;37.87;101461.06;4992952;28;1906;-55
2023/03/30 11:45:38;;;;;;;;;;;;;;;20.93;38.07;101469.38;4997583;28;1009;-53
2023/03/30 11:48:09;;;;;;;;;;;;;;;20.27;39.33;101463.91;4968424;28;1066;-56
2023/03/30 11:50:41;;;;;;;;;;;;;;;19.51;40.99;101470.38;4999423;28;1116;-56
2023/03/30 11:53:12;;;;;;;;;;;;;;;20.84;38.31;101461.69;4998348;28;1112;-58
2023/03/30 11:55:38;;;;;;;;;;;;;;;22.06;35.86;101457.34;4998946;28;1106;-54
2023/03/30 11:58:04;;;;;;;;;;;;;;;21.97;35.97;101459.94;4998057;28;1005;-50
2023/03/30 12:00:34;;;;;;;;;;;;;;;21.83;36.05;101451.50;4998888;28;1049;-50
2023/03/30 12:03:00;;;;;;;;;;;;;;;20.96;37.81;101453.06;4997590;28;1977;-55
2023/03/30 12:05:52;;;;;;;;;;;;;;;18.10;43.53;101440.84;4998507;28;1264;-54
2023/03/30 12:08:24;;;;;;;;;;;;;;;16.21;48.69;101446.22;4995755;28;1418;-56
2023/03/30 12:11:00;;;;;;;;;;;;;;;14.19;53.85;101438.38;4998848;28;1172;-59
2023/03/30 12:13:27;;;;;;;;;;;;;;;14.47;53.18;101444.97;4998507;28;1441;-52
2023/03/30 12:15:54;;;;;;;;;;;;;;;15.60;50.25;101455.22;4998003;28;1296;-55
2023/03/30 12:18:23;;;;;;;;;;;;;;;15.86;49.25;101453.69;4997156;28;1232;-53
2023/03/30 12:21:09;;;;;;;;;;;;;;;16.17;48.10;101443.19;4998719;28;1192;-51
2023/03/30 12:23:43;;;;;;;;;;;;;;;16.56;46.93;101445.00;4973387;28;1907;-54
2023/03/30 12:26:17;;;;;;;;;;;;;;;15.66;48.73;101450.63;4997001;28;1406;-57
2023/03/30 12:28:47;;;;;;;;;;;;;;;15.26;50.16;101449.72;4998065;28;1279;-52
2023/03/30 12:31:13;;;;;;;;;;;;;;;14.66;51.38;101435.53;4997981;28;1315;-48
2023/03/30 12:33:48;;;;;;;;;;;;;;;14.00;53.52;101433.06;4998090;28;1196;-52
2023/03/30 12:36:21;;;;;;;;;;;;;;;16.57;46.38;101438.44;4998533;28;1180;-55
2023/03/30 12:38:47;;;;;;;;;;;;;;;18.00;42.78;101434.44;4998286;28;1184;-49
2023/03/30 12:41:13;;;;;;;;;;;;;;;18.07;42.24;101435.03;4996858;28;1430;-50
2023/03/30 12:43:51;;;;;;;;;;;;;;;18.35;41.63;101436.50;4997804;28;1924;-51
2023/03/30 12:46:25;;;;;;;;;;;;;;;17.58;43.29;101433.31;4997873;28;1247;-51
2023/03/30 12:48:54;;;;;;;;;;;;;;;17.15;44.28;101429.69;4998280;28;1252;-49
2023/03/30 12:51:26;;;;;;;;;;;;;;;17.02;44.43;101431.75;4996900;28;1173;-51
2023/03/30 12:53:51;;;;;;;;;;;;;;;16.88;44.72;101425.00;4985733;28;1102;-48
2023/03/30 12:56:23;;;;;;;;;;;;;;;16.77;44.63;101421.31;4997642;28;1099;-57
2023/03/30 12:59:07;;;;;;;;;;;;;;;16.69;44.46;101410.81;4992916;28;1192;-57
2023/03/30 13:01:35;;;;;;;;;;;;;;;16.52;44.45;101402.66;4997624;28;1133;-55
2023/03/30 13:04:04;;;;;;;;;;;;;;;16.45;44.26;101402.88;4996587;28;1903;-56
2023/03/30 13:06:29;;;;;;;;;;;;;;;16.41;44.35;101407.22;5028004;28;1185;-50
2023/03/30 13:08:56;;;;;;;;;;;;;;;16.26;44.43;101402.38;4997459;28;1283;-49
2023/03/30 13:11:21;;;;;;;;;;;;;;;16.18;44.33;101400.09;4991091;28;1062;-54
2023/03/30 13:13:49;;;;;;;;;;;;;;;16.11;44.31;101391.22;4997820;28;1227;-52